Time;durP1;ratioP1;P1;durP2;ratioP2;P2;SDS_P1;SDS_P2;PMS_P1;PMS_P2;Temp;Humidity;BMP_temperature;BMP_pressure;BME280_temperature;BME280_humidity;BME280_pressure;Samples;Min_cycle;Max_cycle;Signal;HPM_P1;HPM_P2
2022/10/29 00:00:40;;;;;;;;;;;;;;;;;;4973915;28;20009;-81
2022/10/29 00:03:05;;;;;;;;;;;;;;;;;;4956923;28;19969;-81
2022/10/29 00:05:30;;;;;;;;;;;;;;;;;;4956716;28;20396;-81
2022/10/29 00:07:56;;;;;;;;;;;;;;;;;;4969557;28;19914;-79
2022/10/29 00:10:21;;;;;;;;;;;;;;;;;;4940890;28;19915;-79
2022/10/29 00:12:46;;;;;;;;;;;;;;;;;;4955902;28;19918;-79
2022/10/29 00:15:12;;;;;;;;;;;;;;;;;;4956324;28;20369;-81
2022/10/29 00:17:37;;;;;;;;;;;;;;;;;;4956373;28;19925;-80
2022/10/29 00:20:02;;;;;;;;;;;;;;;;;;4956146;28;20349;-80
2022/10/29 00:22:28;;;;;;;;;;;;;;;;;;4973569;28;19914;-80
2022/10/29 00:24:56;;;;;;;;;;;;;;;;;;4968855;28;20362;-79
2022/10/29 00:27:21;;;;;;;;;;;;;;;;;;4973897;28;19914;-80
2022/10/29 00:29:47;;;;;;;;;;;;;;;;;;4941011;28;19920;-80
2022/10/29 00:32:13;;;;;;;;;;;;;;;;;;4957133;28;19922;-82
2022/10/29 00:34:38;;;;;;;;;;;;;;;;;;4956941;28;20385;-80
2022/10/29 00:37:03;;;;;;;;;;;;;;;;;;4941634;28;19969;-82
2022/10/29 00:39:29;;;;;;;;;;;;;;;;;;4980799;28;19914;-81
2022/10/29 00:41:54;;;;;;;;;;;;;;;;;;4946049;29;19915;-80
2022/10/29 00:44:19;;;;;;;;;;;;;;;;;;4964161;29;19921;-81
2022/10/29 00:46:45;;;;;;;;;;;;;;;;;;4962915;28;19914;-81
2022/10/29 00:49:10;;;;;;;;;;;;;;;;;;4955747;28;19922;-80
2022/10/29 00:51:36;;;;;;;;;;;;;;;;;;4938035;29;20385;-80
2022/10/29 00:54:01;;;;;;;;;;;;;;;;;;4939386;29;19958;-80
2022/10/29 00:56:26;;;;;;;;;;;;;;;;;;4941922;28;20005;-82
2022/10/29 00:58:52;;;;;;;;;;;;;;;;;;4956385;28;19921;-82
2022/10/29 01:01:17;;;;;;;;;;;;;;;;;;4958081;29;19915;-80
2022/10/29 01:03:42;;;;;;;;;;;;;;;;;;4940463;29;20024;-80
2022/10/29 01:06:08;;;;;;;;;;;;;;;;;;4940844;29;19919;-79
2022/10/29 01:08:36;;;;;;;;;;;;;;;;;;4941189;29;19915;-80
2022/10/29 01:11:11;;;;;;;;;;;;;;;;;;4942287;29;19921;-80
2022/10/29 01:13:37;;;;;;;;;;;;;;;;;;4942962;28;19914;-81
2022/10/29 01:16:02;;;;;;;;;;;;;;;;;;4946098;29;19914;-79
2022/10/29 01:18:27;;;;;;;;;;;;;;;;;;4970058;29;19918;-80
2022/10/29 01:20:53;;;;;;;;;;;;;;;;;;4965442;28;19924;-80
2022/10/29 01:23:18;;;;;;;;;;;;;;;;;;4957626;29;19962;-80
2022/10/29 01:25:43;;;;;;;;;;;;;;;;;;4940638;29;20013;-82
2022/10/29 01:28:09;;;;;;;;;;;;;;;;;;4940247;29;19921;-81
2022/10/29 01:30:34;;;;;;;;;;;;;;;;;;4966971;28;20004;-79
2022/10/29 01:33:00;;;;;;;;;;;;;;;;;;4958935;28;20043;-79
2022/10/29 01:35:25;;;;;;;;;;;;;;;;;;4943262;28;19973;-80
2022/10/29 01:37:50;;;;;;;;;;;;;;;;;;4976667;28;19922;-81
2022/10/29 01:40:16;;;;;;;;;;;;;;;;;;4958936;28;19922;-81
2022/10/29 01:42:41;;;;;;;;;;;;;;;;;;4976113;28;19918;-81
2022/10/29 01:45:06;;;;;;;;;;;;;;;;;;4973407;28;19918;-81
2022/10/29 01:47:32;;;;;;;;;;;;;;;;;;4957506;28;19961;-80
2022/10/29 01:49:57;;;;;;;;;;;;;;;;;;4976438;28;19918;-80
2022/10/29 01:52:23;;;;;;;;;;;;;;;;;;4975901;28;20061;-79
2022/10/29 01:54:48;;;;;;;;;;;;;;;;;;4959065;28;19921;-79
2022/10/29 01:57:13;;;;;;;;;;;;;;;;;;4959116;28;19918;-80
2022/10/29 01:59:39;;;;;;;;;;;;;;;;;;4976393;28;20474;-80
2022/10/29 02:02:04;;;;;;;;;;;;;;;;;;4954269;28;19945;-80
2022/10/29 02:04:29;;;;;;;;;;;;;;;;;;4958157;28;19914;-81
2022/10/29 02:06:55;;;;;;;;;;;;;;;;;;4958542;28;19914;-82
2022/10/29 02:09:20;;;;;;;;;;;;;;;;;;4958735;28;19914;-81
2022/10/29 02:11:45;;;;;;;;;;;;;;;;;;4959055;28;20008;-79
2022/10/29 02:14:11;;;;;;;;;;;;;;;;;;4958530;28;20321;-81
2022/10/29 02:16:36;;;;;;;;;;;;;;;;;;4942515;28;19925;-81
2022/10/29 02:19:01;;;;;;;;;;;;;;;;;;4953613;28;19914;-80
2022/10/29 02:21:27;;;;;;;;;;;;;;;;;;4958612;28;19953;-80
2022/10/29 02:23:52;;;;;;;;;;;;;;;;;;4959003;28;19925;-80
2022/10/29 02:26:18;;;;;;;;;;;;;;;;;;4986391;28;20005;-80
2022/10/29 02:28:43;;;;;;;;;;;;;;;;;;4967865;28;19914;-80
2022/10/29 02:31:08;;;;;;;;;;;;;;;;;;4976456;28;19914;-79
2022/10/29 02:33:34;;;;;;;;;;;;;;;;;;4974490;28;19920;-80
2022/10/29 02:35:59;;;;;;;;;;;;;;;;;;4971527;28;20001;-81
2022/10/29 02:38:24;;;;;;;;;;;;;;;;;;4958408;28;20305;-80
2022/10/29 02:40:50;;;;;;;;;;;;;;;;;;4975649;28;19914;-80
2022/10/29 02:43:15;;;;;;;;;;;;;;;;;;4975101;28;19969;-80
2022/10/29 02:45:40;;;;;;;;;;;;;;;;;;4975431;28;19918;-80
2022/10/29 02:48:06;;;;;;;;;;;;;;;;;;4957941;28;20110;-80
2022/10/29 02:50:31;;;;;;;;;;;;;;;;;;4975418;28;20297;-80
2022/10/29 02:52:56;;;;;;;;;;;;;;;;;;4968259;28;19918;-80
2022/10/29 02:55:22;;;;;;;;;;;;;;;;;;4954687;29;19950;-80
2022/10/29 02:57:47;;;;;;;;;;;;;;;;;;4938859;29;19919;-80
2022/10/29 03:00:13;;;;;;;;;;;;;;;;;;4939173;29;19914;-80
2022/10/29 03:02:38;;;;;;;;;;;;;;;;;;4954343;29;20377;-80
2022/10/29 03:05:03;;;;;;;;;;;;;;;;;;4954885;29;19937;-81
2022/10/29 03:07:29;;;;;;;;;;;;;;;;;;4954660;29;20334;-80
2022/10/29 03:09:54;;;;;;;;;;;;;;;;;;4955723;28;19914;-80
2022/10/29 03:12:20;;;;;;;;;;;;;;;;;;4961573;28;19914;-80
2022/10/29 03:14:45;;;;;;;;;;;;;;;;;;4955454;28;19969;-80
2022/10/29 03:17:10;;;;;;;;;;;;;;;;;;4954517;28;20390;-81
2022/10/29 03:19:36;;;;;;;;;;;;;;;;;;4952036;23;19905;-81
2022/10/29 03:22:01;;;;;;;;;;;;;;;;;;4994224;28;19925;-79
2022/10/29 03:24:26;;;;;;;;;;;;;;;;;;4993875;28;19914;-79
2022/10/29 03:26:52;;;;;;;;;;;;;;;;;;4990470;28;20122;-79
2022/10/29 03:29:17;;;;;;;;;;;;;;;;;;4994217;28;19945;-79
2022/10/29 03:31:42;;;;;;;;;;;;;;;;;;4978461;28;19914;-79
2022/10/29 03:34:08;;;;;;;;;;;;;;;;;;4978054;28;20309;-80
2022/10/29 03:36:33;;;;;;;;;;;;;;;;;;4977709;28;19921;-79
2022/10/29 03:38:58;;;;;;;;;;;;;;;;;;4961420;28;20396;-78
2022/10/29 03:41:24;;;;;;;;;;;;;;;;;;4978014;28;19921;-79
2022/10/29 03:43:49;;;;;;;;;;;;;;;;;;4989444;28;20008;-79
2022/10/29 03:46:14;;;;;;;;;;;;;;;;;;4977041;28;19914;-79
2022/10/29 03:48:40;;;;;;;;;;;;;;;;;;4994425;28;19914;-78
2022/10/29 03:51:05;;;;;;;;;;;;;;;;;;4977567;28;20291;-78
2022/10/29 03:53:30;;;;;;;;;;;;;;;;;;4995137;28;19917;-80
2022/10/29 03:55:56;;;;;;;;;;;;;;;;;;4977224;28;19920;-77
2022/10/29 03:58:21;;;;;;;;;;;;;;;;;;4976612;28;20299;-78
2022/10/29 04:00:46;;;;;;;;;;;;;;;;;;4972000;28;19914;-79
2022/10/29 04:03:12;;;;;;;;;;;;;;;;;;4994248;28;19913;-79
2022/10/29 04:05:37;;;;;;;;;;;;;;;;;;4977166;28;20015;-79
2022/10/29 04:08:03;;;;;;;;;;;;;;;;;;4994095;28;19914;-79
2022/10/29 04:10:28;;;;;;;;;;;;;;;;;;4977557;28;19921;-80
2022/10/29 04:12:53;;;;;;;;;;;;;;;;;;4976607;28;19921;-79
2022/10/29 04:15:19;;;;;;;;;;;;;;;;;;4995451;28;19953;-79
2022/10/29 04:17:44;;;;;;;;;;;;;;;;;;4989231;28;20385;-80
2022/10/29 04:20:10;;;;;;;;;;;;;;;;;;4975862;28;19936;-78
2022/10/29 04:22:35;;;;;;;;;;;;;;;;;;4993250;28;19948;-81
2022/10/29 04:25:00;;;;;;;;;;;;;;;;;;4976060;28;19918;-78
2022/10/29 04:27:26;;;;;;;;;;;;;;;;;;4975484;28;20332;-80
2022/10/29 04:29:51;;;;;;;;;;;;;;;;;;4993054;28;19957;-79
2022/10/29 04:32:16;;;;;;;;;;;;;;;;;;4993103;28;20055;-80
2022/10/29 04:34:42;;;;;;;;;;;;;;;;;;4974947;28;20482;-80
2022/10/29 04:37:07;;;;;;;;;;;;;;;;;;4956344;28;20440;-80
2022/10/29 04:39:32;;;;;;;;;;;;;;;;;;4956539;28;20370;-80
2022/10/29 04:41:58;;;;;;;;;;;;;;;;;;4973827;28;20329;-78
2022/10/29 04:44:23;;;;;;;;;;;;;;;;;;4973573;28;20005;-80
2022/10/29 04:46:49;;;;;;;;;;;;;;;;;;4974360;28;20270;-78
2022/10/29 04:49:14;;;;;;;;;;;;;;;;;;4974242;28;20004;-79
2022/10/29 04:51:39;;;;;;;;;;;;;;;;;;4988618;28;19945;-80
2022/10/29 04:54:05;;;;;;;;;;;;;;;;;;4992853;28;19918;-78
2022/10/29 04:56:30;;;;;;;;;;;;;;;;;;4993212;28;19964;-79
2022/10/29 04:58:55;;;;;;;;;;;;;;;;;;4975954;28;19928;-78
2022/10/29 05:01:21;;;;;;;;;;;;;;;;;;4993225;28;19914;-79
2022/10/29 05:03:46;;;;;;;;;;;;;;;;;;4992561;28;19918;-78
2022/10/29 05:06:12;;;;;;;;;;;;;;;;;;4975807;28;20297;-79
2022/10/29 05:08:37;;;;;;;;;;;;;;;;;;4983468;28;19914;-78
2022/10/29 05:11:02;;;;;;;;;;;;;;;;;;4956387;28;20338;-77
2022/10/29 05:13:28;;;;;;;;;;;;;;;;;;4939939;28;19918;-80
2022/10/29 05:15:53;;;;;;;;;;;;;;;;;;4973449;28;20365;-79
2022/10/29 05:18:18;;;;;;;;;;;;;;;;;;4973077;28;19918;-80
2022/10/29 05:20:44;;;;;;;;;;;;;;;;;;4955832;28;19965;-80
2022/10/29 05:23:09;;;;;;;;;;;;;;;;;;4955469;28;20378;-79
2022/10/29 05:25:34;;;;;;;;;;;;;;;;;;4965011;28;20321;-79
2022/10/29 05:28:00;;;;;;;;;;;;;;;;;;4971724;28;19921;-80
2022/10/29 05:30:25;;;;;;;;;;;;;;;;;;4972615;28;19922;-80
2022/10/29 05:32:51;;;;;;;;;;;;;;;;;;4972518;28;19977;-79
2022/10/29 05:35:16;;;;;;;;;;;;;;;;;;4973011;28;20338;-79
2022/10/29 05:37:41;;;;;;;;;;;;;;;;;;4955543;28;19918;-78
2022/10/29 05:40:07;;;;;;;;;;;;;;;;;;4974472;28;19921;-80
2022/10/29 05:42:32;;;;;;;;;;;;;;;;;;4958436;28;20324;-80
2022/10/29 05:44:57;;;;;;;;;;;;;;;;;;4996166;28;19948;-79
2022/10/29 05:47:23;;;;;;;;;;;;;;;;;;4998174;28;20278;-80
2022/10/29 05:49:48;;;;;;;;;;;;;;;;;;4966125;28;20032;-79
2022/10/29 05:52:13;;;;;;;;;;;;;;;;;;4981247;28;20341;-79
2022/10/29 05:54:39;;;;;;;;;;;;;;;;;;4995634;28;19921;-78
2022/10/29 05:57:04;;;;;;;;;;;;;;;;;;4991934;28;19980;-79
2022/10/29 05:59:29;;;;;;;;;;;;;;;;;;4976823;28;19957;-79
2022/10/29 06:01:55;;;;;;;;;;;;;;;;;;4976761;28;19918;-79
2022/10/29 06:04:20;;;;;;;;;;;;;;;;;;4975920;28;19921;-78
2022/10/29 06:06:45;;;;;;;;;;;;;;;;;;4976481;28;20019;-80
2022/10/29 06:09:11;;;;;;;;;;;;;;;;;;4975892;28;19986;-78
2022/10/29 06:11:36;;;;;;;;;;;;;;;;;;4975871;28;20404;-78
2022/10/29 06:14:01;;;;;;;;;;;;;;;;;;4961322;28;19914;-79
2022/10/29 06:16:27;;;;;;;;;;;;;;;;;;4975590;28;19914;-78
2022/10/29 06:18:52;;;;;;;;;;;;;;;;;;4975760;28;20464;-78
2022/10/29 06:21:17;;;;;;;;;;;;;;;;;;4958439;28;19929;-79
2022/10/29 06:23:43;;;;;;;;;;;;;;;;;;4975502;28;19930;-79
2022/10/29 06:26:08;;;;;;;;;;;;;;;;;;4975555;28;19961;-79
2022/10/29 06:28:33;;;;;;;;;;;;;;;;;;4975702;28;19939;-79
2022/10/29 06:30:59;;;;;;;;;;;;;;;;;;4958103;28;19914;-77
2022/10/29 06:33:24;;;;;;;;;;;;;;;;;;4972542;28;19920;-77
2022/10/29 06:35:50;;;;;;;;;;;;;;;;;;4977654;28;20258;-79
2022/10/29 06:38:15;;;;;;;;;;;;;;;;;;4977747;28;19922;-79
2022/10/29 06:40:40;;;;;;;;;;;;;;;;;;4977130;28;19913;-78
2022/10/29 06:43:06;;;;;;;;;;;;;;;;;;4977257;28;19914;-79
2022/10/29 06:45:31;;;;;;;;;;;;;;;;;;4977350;28;20292;-79
2022/10/29 06:47:56;;;;;;;;;;;;;;;;;;4990115;28;19964;-79
2022/10/29 06:50:22;;;;;;;;;;;;;;;;;;4961600;28;19913;-79
2022/10/29 06:52:47;;;;;;;;;;;;;;;;;;4993879;28;19949;-80
2022/10/29 06:55:12;;;;;;;;;;;;;;;;;;4977057;28;20297;-81
2022/10/29 06:57:40;;;;;;;;;;;;;;;;;;4982957;28;19918;-81
2022/10/29 07:00:05;;;;;;;;;;;;;;;;;;5001441;28;19964;-81
2022/10/29 07:02:31;;;;;;;;;;;;;;;;;;4976633;28;20304;-82
2022/10/29 07:04:57;;;;;;;;;;;;;;;;;;4989829;28;19920;-82
2022/10/29 07:07:22;;;;;;;;;;;;;;;;;;4994200;28;19914;-82
2022/10/29 07:09:47;;;;;;;;;;;;;;;;;;4976651;28;20345;-82
2022/10/29 07:12:13;;;;;;;;;;;;;;;;;;4994427;28;19967;-81
2022/10/29 07:14:38;;;;;;;;;;;;;;;;;;4976751;28;20278;-82
2022/10/29 07:17:03;;;;;;;;;;;;;;;;;;4960530;28;19918;-82
2022/10/29 07:19:29;;;;;;;;;;;;;;;;;;4976430;28;19977;-80
2022/10/29 07:21:54;;;;;;;;;;;;;;;;;;4971659;28;20020;-79
2022/10/29 07:24:20;;;;;;;;;;;;;;;;;;4975882;28;19921;-79
2022/10/29 07:26:45;;;;;;;;;;;;;;;;;;4976364;28;19917;-82
2022/10/29 07:29:11;;;;;;;;;;;;;;;;;;4960151;28;19914;-82
2022/10/29 07:31:36;;;;;;;;;;;;;;;;;;4993588;28;19957;-84
2022/10/29 07:34:02;;;;;;;;;;;;;;;;;;4977040;28;19937;-81
2022/10/29 07:36:27;;;;;;;;;;;;;;;;;;4940850;28;20311;-77
2022/10/29 07:38:52;;;;;;;;;;;;;;;;;;4956641;28;19922;-77
2022/10/29 07:41:18;;;;;;;;;;;;;;;;;;4925125;28;19965;-77
2022/10/29 07:43:43;;;;;;;;;;;;;;;;;;4955694;28;19918;-77
2022/10/29 07:46:08;;;;;;;;;;;;;;;;;;4956644;28;19957;-81
2022/10/29 07:48:34;;;;;;;;;;;;;;;;;;4972535;28;20396;-81
2022/10/29 07:50:59;;;;;;;;;;;;;;;;;;4972588;28;19980;-81
2022/10/29 07:53:25;;;;;;;;;;;;;;;;;;4940381;28;20366;-81
2022/10/29 07:55:50;;;;;;;;;;;;;;;;;;4956818;28;19914;-80
2022/10/29 07:58:15;;;;;;;;;;;;;;;;;;4956554;28;20440;-80
2022/10/29 08:00:41;;;;;;;;;;;;;;;;;;4972655;28;19921;-80
2022/10/29 08:03:06;;;;;;;;;;;;;;;;;;4975505;28;19918;-80
2022/10/29 08:05:31;;;;;;;;;;;;;;;;;;4964170;28;19924;-81
2022/10/29 08:07:57;;;;;;;;;;;;;;;;;;4958783;28;19910;-80
2022/10/29 08:10:22;;;;;;;;;;;;;;;;;;4972675;28;19921;-80
2022/10/29 08:12:48;;;;;;;;;;;;;;;;;;4973171;28;20441;-81
2022/10/29 08:15:13;;;;;;;;;;;;;;;;;;4956525;28;19914;-81
2022/10/29 08:17:39;;;;;;;;;;;;;;;;;;4973429;28;19922;-81
2022/10/29 08:20:04;;;;;;;;;;;;;;;;;;4973297;28;19976;-81
2022/10/29 08:22:29;;;;;;;;;;;;;;;;;;4973006;28;19914;-80
2022/10/29 08:24:55;;;;;;;;;;;;;;;;;;4956317;28;19918;-81
2022/10/29 08:27:20;;;;;;;;;;;;;;;;;;4956183;28;19915;-81
2022/10/29 08:29:45;;;;;;;;;;;;;;;;;;4956611;28;19914;-80
2022/10/29 08:32:11;;;;;;;;;;;;;;;;;;4956205;28;20029;-81
2022/10/29 08:34:36;;;;;;;;;;;;;;;;;;4955876;28;20016;-81
2022/10/29 08:37:02;;;;;;;;;;;;;;;;;;4973245;28;20005;-80
2022/10/29 08:39:27;;;;;;;;;;;;;;;;;;4971995;28;19968;-80
2022/10/29 08:41:53;;;;;;;;;;;;;;;;;;4956188;28;19984;-81
2022/10/29 08:44:18;;;;;;;;;;;;;;;;;;4971740;28;19922;-80
2022/10/29 08:46:44;;;;;;;;;;;;;;;;;;4973270;28;19914;-79
2022/10/29 08:49:09;;;;;;;;;;;;;;;;;;4956181;28;19914;-81
2022/10/29 08:51:34;;;;;;;;;;;;;;;;;;4973164;28;19914;-81
2022/10/29 08:54:00;;;;;;;;;;;;;;;;;;4939683;28;19985;-81
2022/10/29 08:56:25;;;;;;;;;;;;;;;;;;4973109;28;20005;-81
2022/10/29 08:58:51;;;;;;;;;;;;;;;;;;4973378;28;19941;-80
2022/10/29 09:01:16;;;;;;;;;;;;;;;;;;4940056;28;20004;-81
2022/10/29 09:03:41;;;;;;;;;;;;;;;;;;4956304;28;19914;-81
2022/10/29 09:06:07;;;;;;;;;;;;;;;;;;4973898;28;19997;-80
2022/10/29 09:08:33;;;;;;;;;;;;;;;;;;4972147;28;20013;-81
2022/10/29 09:11:00;;;;;;;;;;;;;;;;;;4956753;28;20049;-81
2022/10/29 09:13:25;;;;;;;;;;;;;;;;;;4973476;28;19921;-80
2022/10/29 09:15:50;;;;;;;;;;;;;;;;;;4976467;28;19910;-80
2022/10/29 09:18:16;;;;;;;;;;;;;;;;;;4959970;28;20414;-81
2022/10/29 09:20:41;;;;;;;;;;;;;;;;;;4989191;23;19969;-82
2022/10/29 09:23:06;;;;;;;;;;;;;;;;;;4947413;28;19917;-81
2022/10/29 09:25:32;;;;;;;;;;;;;;;;;;4945863;28;19914;-84
2022/10/29 09:27:57;;;;;;;;;;;;;;;;;;4980573;28;20499;-84
2022/10/29 09:30:23;;;;;;;;;;;;;;;;;;4961559;28;20052;-83
2022/10/29 09:32:48;;;;;;;;;;;;;;;;;;4979029;28;19921;-82
2022/10/29 09:35:13;;;;;;;;;;;;;;;;;;4928773;28;19939;-82
2022/10/29 09:37:39;;;;;;;;;;;;;;;;;;4977970;28;19968;-83
2022/10/29 09:40:04;;;;;;;;;;;;;;;;;;4960466;28;20006;-84
2022/10/29 09:42:30;;;;;;;;;;;;;;;;;;4976640;28;19914;-84
2022/10/29 09:44:55;;;;;;;;;;;;;;;;;;4976360;28;19997;-84
2022/10/29 09:47:20;;;;;;;;;;;;;;;;;;4976306;28;19960;-83
2022/10/29 09:49:46;;;;;;;;;;;;;;;;;;4976412;28;19911;-84
2022/10/29 09:52:11;;;;;;;;;;;;;;;;;;4976080;28;19974;-84
2022/10/29 09:54:36;;;;;;;;;;;;;;;;;;4975832;28;20297;-83
2022/10/29 09:57:02;;;;;;;;;;;;;;;;;;4976169;28;20381;-84
2022/10/29 09:59:27;;;;;;;;;;;;;;;;;;4976203;28;20301;-84
2022/10/29 10:01:52;;;;;;;;;;;;;;;;;;4942839;28;19922;-84
2022/10/29 10:04:18;;;;;;;;;;;;;;;;;;4983861;28;19941;-82
2022/10/29 10:06:43;;;;;;;;;;;;;;;;;;4987978;28;19969;-84
2022/10/29 10:09:09;;;;;;;;;;;;;;;;;;4934102;28;19914;-85
2022/10/29 10:11:37;;;;;;;;;;;;;;;;;;4977308;28;19922;-83
2022/10/29 10:14:12;;;;;;;;;;;;;;;;;;4976306;28;20006;-83
2022/10/29 10:16:38;;;;;;;;;;;;;;;;;;4975889;28;20361;-84
2022/10/29 10:19:03;;;;;;;;;;;;;;;;;;4926580;28;19918;-84
2022/10/29 10:21:29;;;;;;;;;;;;;;;;;;4975683;28;19918;-84
2022/10/29 10:23:56;;;;;;;;;;;;;;;;;;4975434;28;20045;-83
2022/10/29 10:26:21;;;;;;;;;;;;;;;;;;4957472;28;20346;-84
2022/10/29 10:28:47;;;;;;;;;;;;;;;;;;4958103;28;19914;-83
2022/10/29 10:31:12;;;;;;;;;;;;;;;;;;4958281;28;19941;-81
2022/10/29 10:33:38;;;;;;;;;;;;;;;;;;4926181;28;20547;-82
2022/10/29 10:36:03;;;;;;;;;;;;;;;;;;4975359;28;19918;-83
2022/10/29 10:38:28;;;;;;;;;;;;;;;;;;4975558;28;19965;-83
2022/10/29 10:40:54;;;;;;;;;;;;;;;;;;4958873;28;19987;-83
2022/10/29 10:43:19;;;;;;;;;;;;;;;;;;4975133;28;19914;-83
2022/10/29 10:45:45;;;;;;;;;;;;;;;;;;4975290;28;19914;-83
2022/10/29 10:48:10;;;;;;;;;;;;;;;;;;4975725;28;19957;-84
2022/10/29 10:50:36;;;;;;;;;;;;;;;;;;4975291;28;20042;-85
2022/10/29 10:53:01;;;;;;;;;;;;;;;;;;4975138;28;19914;-83
2022/10/29 10:55:27;;;;;;;;;;;;;;;;;;4974838;28;19914;-83
2022/10/29 10:57:52;;;;;;;;;;;;;;;;;;4941683;28;20397;-82
2022/10/29 11:00:18;;;;;;;;;;;;;;;;;;4957869;28;19918;-83
2022/10/29 11:02:43;;;;;;;;;;;;;;;;;;4957634;28;20000;-82
2022/10/29 11:05:08;;;;;;;;;;;;;;;;;;4975635;28;20297;-83
2022/10/29 11:07:34;;;;;;;;;;;;;;;;;;4957987;28;20008;-83
2022/10/29 11:09:59;;;;;;;;;;;;;;;;;;4975597;28;20269;-83
2022/10/29 11:12:25;;;;;;;;;;;;;;;;;;4987051;28;19914;-82
2022/10/29 11:14:50;;;;;;;;;;;;;;;;;;4982946;28;20005;-82
2022/10/29 11:17:15;;;;;;;;;;;;;;;;;;4975194;28;20329;-82
2022/10/29 11:19:41;;;;;;;;;;;;;;;;;;4975461;28;19915;-83
2022/10/29 11:22:06;;;;;;;;;;;;;;;;;;4957613;28;20013;-82
2022/10/29 11:24:31;;;;;;;;;;;;;;;;;;4974256;28;19953;-82
2022/10/29 11:26:57;;;;;;;;;;;;;;;;;;4956974;28;19914;-83
2022/10/29 11:29:22;;;;;;;;;;;;;;;;;;4974175;28;19914;-83
2022/10/29 11:31:47;;;;;;;;;;;;;;;;;;4973854;28;19922;-81
2022/10/29 11:34:13;;;;;;;;;;;;;;;;;;4973851;28;20041;-82
2022/10/29 11:36:38;;;;;;;;;;;;;;;;;;4956887;28;19930;-82
2022/10/29 11:39:04;;;;;;;;;;;;;;;;;;4955552;28;19925;-82
2022/10/29 11:41:29;;;;;;;;;;;;;;;;;;4940586;28;19921;-82
2022/10/29 11:43:54;;;;;;;;;;;;;;;;;;4956432;28;19922;-82
2022/10/29 11:46:20;;;;;;;;;;;;;;;;;;4974965;28;19914;-82
2022/10/29 11:48:45;;;;;;;;;;;;;;;;;;4974296;28;19914;-82
2022/10/29 11:51:10;;;;;;;;;;;;;;;;;;4957043;28;20013;-82
2022/10/29 11:53:36;;;;;;;;;;;;;;;;;;4973968;28;20341;-82
2022/10/29 11:56:01;;;;;;;;;;;;;;;;;;4925254;28;20345;-83
2022/10/29 11:58:30;;;;;;;;;;;;;;;;;;4956222;28;19914;-83
2022/10/29 12:00:55;;;;;;;;;;;;;;;;;;4956363;28;20066;-83
2022/10/29 12:03:21;;;;;;;;;;;;;;;;;;4956378;28;20021;-82
2022/10/29 12:05:46;;;;;;;;;;;;;;;;;;4974315;28;19997;-81
2022/10/29 12:08:12;;;;;;;;;;;;;;;;;;4975314;28;19937;-81
2022/10/29 12:10:37;;;;;;;;;;;;;;;;;;4973879;28;19914;-80
2022/10/29 12:13:02;;;;;;;;;;;;;;;;;;4978346;28;19977;-81
2022/10/29 12:15:28;;;;;;;;;;;;;;;;;;4985575;28;20025;-80
2022/10/29 12:17:53;;;;;;;;;;;;;;;;;;4977902;28;19918;-80
2022/10/29 12:20:18;;;;;;;;;;;;;;;;;;4956308;28;20290;-81
2022/10/29 12:22:44;;;;;;;;;;;;;;;;;;4973425;28;19922;-81
2022/10/29 12:25:09;;;;;;;;;;;;;;;;;;4973453;28;19921;-81
2022/10/29 12:27:34;;;;;;;;;;;;;;;;;;4973467;28;20302;-81
2022/10/29 12:30:00;;;;;;;;;;;;;;;;;;4973432;28;19920;-81
2022/10/29 12:32:25;;;;;;;;;;;;;;;;;;4956011;28;19984;-82
2022/10/29 12:34:51;;;;;;;;;;;;;;;;;;4956087;28;19921;-81
2022/10/29 12:37:16;;;;;;;;;;;;;;;;;;4973723;28;19925;-81
2022/10/29 12:39:41;;;;;;;;;;;;;;;;;;4973490;28;20386;-81
2022/10/29 12:42:07;;;;;;;;;;;;;;;;;;4955902;28;20028;-81
2022/10/29 12:44:32;;;;;;;;;;;;;;;;;;4973121;28;19925;-81
2022/10/29 12:46:57;;;;;;;;;;;;;;;;;;4957302;28;19918;-80
2022/10/29 12:49:23;;;;;;;;;;;;;;;;;;4957633;28;19964;-81
2022/10/29 12:51:48;;;;;;;;;;;;;;;;;;4960189;28;20389;-82
2022/10/29 12:54:14;;;;;;;;;;;;;;;;;;4976982;28;19910;-81
2022/10/29 12:56:39;;;;;;;;;;;;;;;;;;4959941;28;20131;-81
2022/10/29 12:59:04;;;;;;;;;;;;;;;;;;4977184;28;20274;-80
2022/10/29 13:01:29;;;;;;;;;;;;;;;;;;4977075;28;20285;-80
2022/10/29 13:03:55;;;;;;;;;;;;;;;;;;4959636;28;19914;-81
2022/10/29 13:06:20;;;;;;;;;;;;;;;;;;4959645;28;20270;-81
2022/10/29 13:08:46;;;;;;;;;;;;;;;;;;4976804;28;19914;-80
2022/10/29 13:11:11;;;;;;;;;;;;;;;;;;4977246;28;20433;-80
2022/10/29 13:13:37;;;;;;;;;;;;;;;;;;4976448;28;19914;-82
2022/10/29 13:16:02;;;;;;;;;;;;;;;;;;4960120;28;20378;-83
2022/10/29 13:18:27;;;;;;;;;;;;;;;;;;4959980;28;20331;-82
2022/10/29 13:20:53;;;;;;;;;;;;;;;;;;4976431;28;19922;-82
2022/10/29 13:23:18;;;;;;;;;;;;;;;;;;4959150;28;20521;-80
2022/10/29 13:25:43;;;;;;;;;;;;;;;;;;4976642;28;19918;-81
2022/10/29 13:28:09;;;;;;;;;;;;;;;;;;4959141;28;19921;-81
2022/10/29 13:30:34;;;;;;;;;;;;;;;;;;4976416;28;19914;-80
2022/10/29 13:33:00;;;;;;;;;;;;;;;;;;4975994;28;20001;-80
2022/10/29 13:35:28;;;;;;;;;;;;;;;;;;4959215;28;20329;-81
2022/10/29 13:37:54;;;;;;;;;;;;;;;;;;4976573;28;19918;-80
2022/10/29 13:40:19;;;;;;;;;;;;;;;;;;4976076;28;20263;-80
2022/10/29 13:42:44;;;;;;;;;;;;;;;;;;4958702;28;19914;-86
2022/10/29 13:45:10;;;;;;;;;;;;;;;;;;4958855;28;19914;-87
2022/10/29 13:47:35;;;;;;;;;;;;;;;;;;4958679;28;19922;-83
2022/10/29 13:50:00;;;;;;;;;;;;;;;;;;4958897;28;19918;-82
2022/10/29 13:52:26;;;;;;;;;;;;;;;;;;4958276;28;19915;-83
2022/10/29 13:54:51;;;;;;;;;;;;;;;;;;4976121;28;19953;-81
2022/10/29 13:57:17;;;;;;;;;;;;;;;;;;4976010;28;19922;-80
2022/10/29 13:59:42;;;;;;;;;;;;;;;;;;4958695;28;20369;-78
2022/10/29 14:02:07;;;;;;;;;;;;;;;;;;4975268;28;19914;-81
2022/10/29 14:04:33;;;;;;;;;;;;;;;;;;4975717;28;19982;-81
2022/10/29 14:06:58;;;;;;;;;;;;;;;;;;4976220;28;19925;-81
2022/10/29 14:09:24;;;;;;;;;;;;;;;;;;4976158;28;19918;-81
2022/10/29 14:11:49;;;;;;;;;;;;;;;;;;4976060;28;20386;-80
2022/10/29 14:14:14;;;;;;;;;;;;;;;;;;4976409;28;20329;-81
2022/10/29 14:16:40;;;;;;;;;;;;;;;;;;4968232;28;19914;-80
2022/10/29 14:19:05;;;;;;;;;;;;;;;;;;4987284;28;19990;-80
2022/10/29 14:21:30;;;;;;;;;;;;;;;;;;4945362;28;19918;-80
2022/10/29 14:23:56;;;;;;;;;;;;;;;;;;4976326;28;20073;-81
2022/10/29 14:26:23;;;;;;;;;;;;;;;;;;4959637;28;19921;-79
2022/10/29 14:28:48;;;;;;;;;;;;;;;;;;4977212;28;20428;-78
2022/10/29 14:31:14;;;;;;;;;;;;;;;;;;4964676;28;19914;-80
2022/10/29 14:33:39;;;;;;;;;;;;;;;;;;4986937;28;19937;-80
2022/10/29 14:36:05;;;;;;;;;;;;;;;;;;4967487;28;19938;-80
2022/10/29 14:38:30;;;;;;;;;;;;;;;;;;4987774;28;19950;-80
2022/10/29 14:40:55;;;;;;;;;;;;;;;;;;4978929;28;20354;-81
2022/10/29 14:43:21;;;;;;;;;;;;;;;;;;4977174;28;19914;-81
2022/10/29 14:45:46;;;;;;;;;;;;;;;;;;4958270;28;19968;-82
2022/10/29 14:48:14;;;;;;;;;;;;;;;;;;4943084;28;19915;-81
2022/10/29 14:50:39;;;;;;;;;;;;;;;;;;4958250;28;20433;-81
2022/10/29 14:53:05;;;;;;;;;;;;;;;;;;4968192;28;20020;-81
2022/10/29 14:55:30;;;;;;;;;;;;;;;;;;4967140;28;19938;-81
2022/10/29 14:57:55;;;;;;;;;;;;;;;;;;4985805;28;20377;-82
2022/10/29 15:00:23;;;;;;;;;;;;;;;;;;4967676;28;19921;-81
2022/10/29 15:02:49;;;;;;;;;;;;;;;;;;4983604;28;19918;-82
2022/10/29 15:05:14;;;;;;;;;;;;;;;;;;4985473;28;19914;-82
2022/10/29 15:07:39;;;;;;;;;;;;;;;;;;4978166;28;19961;-81
2022/10/29 15:10:05;;;;;;;;;;;;;;;;;;4975139;28;19921;-80
2022/10/29 15:12:31;;;;;;;;;;;;;;;;;;4957252;28;20016;-81
2022/10/29 15:14:59;;;;;;;;;;;;;;;;;;4961302;28;20369;-82
2022/10/29 15:17:24;;;;;;;;;;;;;;;;;;4964192;28;19949;-81
2022/10/29 15:19:49;;;;;;;;;;;;;;;;;;4970494;28;19914;-82
2022/10/29 15:22:15;;;;;;;;;;;;;;;;;;4981191;28;19918;-81
2022/10/29 15:24:40;;;;;;;;;;;;;;;;;;4974344;28;19937;-81
2022/10/29 15:27:06;;;;;;;;;;;;;;;;;;4974775;28;19999;-81
2022/10/29 15:29:31;;;;;;;;;;;;;;;;;;4957529;28;19962;-82
2022/10/29 15:31:56;;;;;;;;;;;;;;;;;;4974580;28;19914;-81
2022/10/29 15:34:22;;;;;;;;;;;;;;;;;;4956868;28;19954;-82
2022/10/29 15:36:47;;;;;;;;;;;;;;;;;;4974220;28;19914;-82
2022/10/29 15:39:13;;;;;;;;;;;;;;;;;;4956617;28;20398;-82
2022/10/29 15:41:38;;;;;;;;;;;;;;;;;;4941119;28;20337;-82
2022/10/29 15:44:06;;;;;;;;;;;;;;;;;;4940879;28;19914;-82
2022/10/29 15:46:34;;;;;;;;;;;;;;;;;;4957422;28;19921;-81
2022/10/29 15:49:00;;;;;;;;;;;;;;;;;;4974029;28;19929;-81
2022/10/29 15:51:25;;;;;;;;;;;;;;;;;;4956935;28;20417;-81
2022/10/29 15:53:50;;;;;;;;;;;;;;;;;;4956493;28;19921;-82
2022/10/29 15:56:16;;;;;;;;;;;;;;;;;;4941029;28;20285;-81
2022/10/29 15:58:41;;;;;;;;;;;;;;;;;;4956638;28;19918;-81
2022/10/29 16:01:07;;;;;;;;;;;;;;;;;;4956538;28;20407;-80
2022/10/29 16:03:32;;;;;;;;;;;;;;;;;;4940237;28;19914;-81
2022/10/29 16:05:58;;;;;;;;;;;;;;;;;;4956402;28;19922;-81
2022/10/29 16:08:23;;;;;;;;;;;;;;;;;;4956264;28;20008;-81
2022/10/29 16:10:49;;;;;;;;;;;;;;;;;;4940454;28;19914;-81
2022/10/29 16:13:14;;;;;;;;;;;;;;;;;;4940212;28;19949;-80
2022/10/29 16:15:40;;;;;;;;;;;;;;;;;;4940251;28;20289;-81
2022/10/29 16:18:05;;;;;;;;;;;;;;;;;;4957996;28;19918;-80
2022/10/29 16:20:30;;;;;;;;;;;;;;;;;;4965440;28;20392;-80
2022/10/29 16:22:56;;;;;;;;;;;;;;;;;;4980790;28;19993;-81
2022/10/29 16:25:21;;;;;;;;;;;;;;;;;;4973658;28;19920;-81
2022/10/29 16:27:47;;;;;;;;;;;;;;;;;;4956274;28;19938;-81
2022/10/29 16:30:12;;;;;;;;;;;;;;;;;;4940540;28;19925;-80
2022/10/29 16:32:37;;;;;;;;;;;;;;;;;;4940018;28;20283;-80